Time;durP1;ratioP1;P1;durP2;ratioP2;P2;SDS_P1;SDS_P2;PMS_P1;PMS_P2;Temp;Humidity;BMP_temperature;BMP_pressure;BME280_temperature;BME280_humidity;BME280_pressure;Samples;Min_cycle;Max_cycle;Signal;HPM_P1;HPM_P2
2023/10/28 00:00:10;;;;;;;5.63;2.85;;;12.90;70.10;14.70;99241.00;;;;5035004;28;20204;-74
2023/10/28 00:02:38;;;;;;;5.38;2.75;;;12.90;70.50;14.70;99252.00;;;;5034209;28;20188;-74
2023/10/28 00:05:06;;;;;;;3.22;2.50;;;12.90;70.10;14.70;99245.00;;;;5034328;28;20202;-74
2023/10/28 00:07:33;;;;;;;3.92;3.38;;;12.90;70.20;14.70;99247.00;;;;5032507;28;20200;-74
2023/10/28 00:10:00;;;;;;;4.05;2.67;;;12.90;70.20;14.70;99253.00;;;;5031346;28;20642;-74
2023/10/28 00:12:28;;;;;;;4.93;3.10;;;12.90;70.20;14.80;99251.00;;;;5033753;28;20196;-74
2023/10/28 00:14:55;;;;;;;4.20;3.03;;;12.90;70.30;14.70;99249.00;;;;5034578;28;20211;-74
2023/10/28 00:17:24;;;;;;;3.88;3.03;;;13.00;70.40;14.80;99253.00;;;;5034286;28;20219;-74
2023/10/28 00:19:52;;;;;;;3.38;2.60;;;13.00;70.50;14.80;99250.00;;;;5035046;28;20224;-74
2023/10/28 00:22:19;;;;;;;3.63;3.25;;;13.00;70.50;14.80;99254.00;;;;5033459;28;20602;-74
2023/10/28 00:24:47;;;;;;;6.70;3.10;;;13.00;70.50;14.90;99263.00;;;;5034463;28;20259;-74
2023/10/28 00:27:14;;;;;;;3.45;3.13;;;13.00;70.50;14.90;99256.00;;;;5034199;28;20200;-75
2023/10/28 00:29:41;;;;;;;3.72;2.72;;;13.00;70.50;14.90;99259.00;;;;5034342;28;20251;-74
2023/10/28 00:32:09;;;;;;;4.72;2.97;;;13.00;70.50;14.90;99263.00;;;;5033454;28;20724;-74
2023/10/28 00:34:36;;;;;;;5.10;2.78;;;13.10;70.50;14.90;99259.00;;;;5026262;28;20284;-74
2023/10/28 00:37:04;;;;;;;5.05;3.08;;;13.10;70.60;14.90;99263.00;;;;5034042;28;20193;-74
2023/10/28 00:39:31;;;;;;;5.03;2.65;;;13.10;70.60;15.00;99268.00;;;;5034303;28;20295;-74
2023/10/28 00:42:01;;;;;;;5.00;2.83;;;13.10;70.60;15.00;99263.00;;;;5034974;28;20211;-73
2023/10/28 00:44:32;;;;;;;7.00;3.00;;;13.20;70.70;15.00;99259.00;;;;5034725;28;20219;-74
2023/10/28 00:46:59;;;;;;;3.20;2.47;;;13.20;70.80;15.00;99259.00;;;;5033542;28;20631;-74
2023/10/28 00:49:29;;;;;;;4.53;2.75;;;13.20;70.80;15.00;99257.00;;;;5033867;28;20203;-74
2023/10/28 00:51:56;;;;;;;5.13;2.55;;;13.20;70.80;15.10;99264.00;;;;5033956;28;20193;-74
2023/10/28 00:56:51;;;;;;;6.65;2.60;;;13.30;70.90;15.10;99265.00;;;;5086533;22;20243;-74
2023/10/28 00:59:18;;;;;;;4.22;2.58;;;13.30;70.90;15.10;99259.00;;;;5033660;28;20232;-74
2023/10/28 01:01:46;;;;;;;6.22;3.03;;;13.40;71.00;15.10;99265.00;;;;5033621;28;20575;-74
2023/10/28 01:04:13;;;;;;;5.28;2.22;;;13.30;71.00;15.20;99261.00;;;;5033367;28;20665;-74
2023/10/28 01:06:40;;;;;;;4.55;2.58;;;13.40;71.00;15.20;99261.00;;;;5033383;28;20205;-74
2023/10/28 01:09:08;;;;;;;3.85;2.45;;;13.40;71.00;15.20;99267.00;;;;5032062;28;20211;-74
2023/10/28 01:11:39;;;;;;;4.35;2.67;;;13.40;71.10;15.20;99266.00;;;;5033743;28;20188;-74
2023/10/28 01:14:06;;;;;;;4.22;2.50;;;13.50;71.20;15.30;99266.00;;;;5033930;28;20218;-74
2023/10/28 01:16:34;;;;;;;4.75;2.70;;;13.50;71.20;15.30;99264.00;;;;5032573;28;20196;-74
2023/10/28 01:19:01;;;;;;;5.70;2.88;;;13.50;71.30;15.40;99262.00;;;;5032799;28;20224;-73
2023/10/28 01:21:30;;;;;;;5.38;3.03;;;13.50;71.30;15.40;99265.00;;;;5033361;28;20200;-74
2023/10/28 01:23:57;;;;;;;6.45;2.97;;;13.60;71.30;15.40;99260.00;;;;5033655;28;20192;-74
2023/10/28 01:26:25;;;;;;;10.40;3.47;;;13.60;71.30;15.40;99263.00;;;;5033200;28;20596;-74
2023/10/28 01:28:52;;;;;;;7.03;2.45;;;13.60;71.40;15.50;99254.00;;;;5033709;28;20645;-74
2023/10/28 01:31:19;;;;;;;11.15;4.00;;;13.70;71.40;15.50;99252.00;;;;5016737;28;20205;-74
2023/10/28 01:33:46;;;;;;;4.38;2.20;;;13.70;71.40;15.50;99256.00;;;;5013031;28;20208;-74
2023/10/28 01:36:13;;;;;;;4.70;2.92;;;13.70;71.40;15.60;99255.00;;;;5014349;28;20201;-74
2023/10/28 01:38:42;;;;;;;4.68;2.40;;;13.80;71.50;15.60;99256.00;;;;5012317;28;20251;-74
2023/10/28 01:41:12;;;;;;;3.72;2.75;;;13.80;71.40;15.60;99259.00;;;;5013310;28;20209;-74
2023/10/28 01:43:42;;;;;;;5.22;2.35;;;13.80;71.40;15.60;99261.00;;;;5013274;28;20200;-74
2023/10/28 01:46:09;;;;;;;2.75;2.33;;;13.90;71.50;15.70;99262.00;;;;5012849;28;20285;-74
2023/10/28 01:48:36;;;;;;;4.05;2.58;;;13.90;71.50;15.70;99264.00;;;;5011155;28;20583;-74
2023/10/28 01:51:04;;;;;;;5.47;2.90;;;13.90;71.50;15.70;99268.00;;;;5013332;28;20193;-74
2023/10/28 01:53:31;;;;;;;4.47;2.45;;;14.00;71.50;15.80;99255.00;;;;5013356;28;20731;-75
2023/10/28 01:56:00;;;;;;;6.32;2.78;;;14.00;71.50;15.80;99267.00;;;;5013146;28;20251;-74
2023/10/28 01:58:28;;;;;;;5.32;2.72;;;14.00;71.50;15.80;99266.00;;;;5013201;28;20319;-75
2023/10/28 02:00:55;;;;;;;6.53;2.58;;;14.10;71.60;15.90;99263.00;;;;5012765;28;20193;-74
2023/10/28 02:03:22;;;;;;;4.53;2.83;;;14.10;71.70;15.90;99259.00;;;;5011625;28;20201;-74
2023/10/28 02:05:49;;;;;;;3.30;2.60;;;14.10;71.70;15.90;99263.00;;;;5012886;28;20658;-74
2023/10/28 02:08:16;;;;;;;4.22;2.70;;;14.20;71.70;16.00;99269.00;;;;5011242;28;20228;-73
2023/10/28 02:10:43;;;;;;;3.28;2.63;;;14.20;71.70;16.00;99268.00;;;;5023676;28;20204;-74
2023/10/28 02:13:12;;;;;;;6.60;2.85;;;14.30;71.70;16.00;99263.00;;;;5032777;28;20201;-74
2023/10/28 02:15:41;;;;;;;4.65;3.50;;;14.30;71.80;16.00;99260.00;;;;5032552;28;20211;-74
2023/10/28 02:18:08;;;;;;;4.53;2.78;;;14.30;71.80;16.10;99265.00;;;;5022602;28;20251;-74
2023/10/28 02:20:36;;;;;;;3.47;2.83;;;14.30;71.70;16.10;99250.00;;;;5012210;28;20545;-74
2023/10/28 02:23:04;;;;;;;4.18;2.90;;;14.40;71.70;16.10;99258.00;;;;5012465;28;20205;-75
2023/10/28 02:25:31;;;;;;;4.47;3.20;;;14.40;71.70;16.10;99254.00;;;;5012949;28;20200;-74
2023/10/28 02:27:58;;;;;;;5.20;2.72;;;14.40;71.70;16.20;99251.00;;;;5013006;28;20201;-75
2023/10/28 02:30:26;;;;;;;4.90;3.47;;;14.40;71.60;16.20;99255.00;;;;4993129;28;20201;-74
2023/10/28 02:32:54;;;;;;;7.05;2.80;;;14.50;71.70;16.20;99253.00;;;;5010284;28;20193;-75
2023/10/28 02:35:21;;;;;;;5.57;3.28;;;14.50;71.70;16.30;99253.00;;;;5012295;28;20204;-74
2023/10/28 02:37:48;;;;;;;5.28;2.92;;;14.50;71.60;16.30;99259.00;;;;5011563;28;20211;-75
2023/10/28 02:40:15;;;;;;;6.88;3.17;;;14.60;71.70;16.30;99251.00;;;;5012471;28;20287;-75
2023/10/28 02:42:42;;;;;;;3.08;2.67;;;14.50;71.70;16.30;99257.00;;;;5011889;28;20205;-75
2023/10/28 02:45:10;;;;;;;5.80;3.10;;;14.60;71.60;16.30;99248.00;;;;5027411;28;20215;-75
2023/10/28 02:47:38;;;;;;;6.10;2.50;;;14.60;71.60;16.40;99250.00;;;;5017847;28;20196;-75
2023/10/28 02:50:07;;;;;;;5.32;2.70;;;14.60;71.60;16.40;99253.00;;;;5011946;28;20197;-75
2023/10/28 02:52:34;;;;;;;5.05;2.58;;;14.60;71.60;16.40;99254.00;;;;5012288;28;20228;-74
2023/10/28 02:55:01;;;;;;;7.93;2.50;;;14.70;71.60;16.40;99248.00;;;;5009546;28;20201;-74
2023/10/28 02:57:29;;;;;;;4.00;2.03;;;14.70;71.60;16.40;99248.00;;;;4992403;28;20198;-74
2023/10/28 02:59:56;;;;;;;5.45;2.25;;;14.70;71.50;16.50;99246.00;;;;4992468;28;20225;-74
2023/10/28 03:02:23;;;;;;;3.65;2.38;;;14.70;71.50;16.50;99254.00;;;;5009466;28;20200;-74
2023/10/28 03:04:51;;;;;;;5.47;2.85;;;14.70;71.50;16.50;99254.00;;;;5011460;28;20275;-74
2023/10/28 03:07:18;;;;;;;4.25;1.92;;;14.70;71.50;16.50;99255.00;;;;5012029;28;20304;-75
2023/10/28 03:09:45;;;;;;;6.45;1.95;;;14.80;72.30;16.50;99261.00;;;;5011321;28;20207;-74
2023/10/28 03:12:15;;;;;;;2.90;1.70;;;14.80;72.30;16.50;99256.00;;;;5011808;28;20207;-75
2023/10/28 03:14:42;;;;;;;3.17;2.30;;;14.80;71.60;16.50;99261.00;;;;5012021;28;20287;-74
2023/10/28 03:17:10;;;;;;;4.07;2.40;;;14.80;71.60;16.60;99263.00;;;;5011487;28;20669;-74
2023/10/28 03:19:37;;;;;;;2.97;2.00;;;14.80;71.60;16.60;99263.00;;;;5012419;28;20706;-75
2023/10/28 03:22:05;;;;;;;4.93;1.77;;;14.80;71.60;16.60;99269.00;;;;5011383;28;20201;-74
2023/10/28 03:24:33;;;;;;;4.20;1.90;;;14.80;71.60;16.60;99274.00;;;;5004250;28;20197;-74
2023/10/28 03:27:00;;;;;;;6.38;2.60;;;14.90;71.70;16.60;99273.00;;;;4992199;28;20236;-75
2023/10/28 03:29:27;;;;;;;7.22;2.20;;;14.90;71.70;16.60;99267.00;;;;5001487;28;20223;-74
2023/10/28 03:31:55;;;;;;;3.22;1.92;;;14.90;71.70;16.70;99260.00;;;;5011266;28;20197;-74
2023/10/28 03:34:22;;;;;;;3.72;1.90;;;14.90;71.70;16.70;99262.00;;;;5012034;28;20204;-74
2023/10/28 03:36:49;;;;;;;5.07;2.30;;;14.90;71.70;16.70;99265.00;;;;5012256;28;20209;-75
2023/10/28 03:39:17;;;;;;;5.80;2.38;;;15.00;71.70;16.70;99261.00;;;;5011559;28;20224;-75
2023/10/28 03:41:45;;;;;;;3.42;1.70;;;15.00;71.70;16.70;99257.00;;;;5011779;28;20276;-76
2023/10/28 03:44:12;;;;;;;2.78;1.50;;;15.00;71.70;16.70;99262.00;;;;5011795;28;20211;-75
2023/10/28 03:46:39;;;;;;;6.38;2.10;;;15.00;71.70;16.80;99258.00;;;;5010576;28;20204;-75
2023/10/28 03:49:06;;;;;;;4.57;1.63;;;15.00;71.70;16.80;99265.00;;;;5009979;28;20231;-74
2023/10/28 03:51:34;;;;;;;4.32;2.25;;;15.00;71.70;16.80;99269.00;;;;5012172;28;20197;-75
2023/10/28 03:54:02;;;;;;;2.25;1.58;;;15.10;71.70;16.80;99265.00;;;;5024941;28;20208;-75
2023/10/28 03:56:30;;;;;;;3.22;1.90;;;15.10;71.70;16.80;99261.00;;;;5012238;28;20682;-74
2023/10/28 03:58:58;;;;;;;6.72;1.95;;;15.10;71.70;16.80;99264.00;;;;5011376;28;20225;-74
2023/10/28 04:01:25;;;;;;;3.83;1.83;;;15.10;71.60;16.80;99262.00;;;;5011565;28;20197;-75
2023/10/28 04:03:52;;;;;;;2.72;1.73;;;15.10;71.60;16.90;99261.00;;;;5010254;28;20193;-74
2023/10/28 04:06:20;;;;;;;3.40;1.88;;;15.10;71.60;16.80;99260.00;;;;5011600;28;20203;-75
2023/10/28 04:08:47;;;;;;;2.78;1.30;;;15.20;71.70;16.90;99252.00;;;;5013950;28;20208;-75
2023/10/28 04:11:14;;;;;;;3.05;1.67;;;15.20;71.70;16.90;99254.00;;;;5022305;28;20662;-75
2023/10/28 04:13:42;;;;;;;3.10;1.52;;;15.20;71.60;16.90;99259.00;;;;5014715;28;20303;-75
2023/10/28 04:16:09;;;;;;;3.95;1.95;;;15.20;71.50;16.90;99259.00;;;;5015375;28;20789;-74
2023/10/28 04:18:37;;;;;;;4.25;2.30;;;15.20;71.50;16.90;99264.00;;;;5015159;28;20311;-74
2023/10/28 04:21:05;;;;;;;3.05;1.95;;;15.20;72.10;16.90;99252.00;;;;5014711;28;20204;-74
2023/10/28 04:23:32;;;;;;;2.42;1.70;;;15.20;71.40;16.90;99259.00;;;;5015209;28;20236;-75
2023/10/28 04:25:59;;;;;;;2.85;2.45;;;15.20;71.40;16.90;99257.00;;;;5019153;28;20577;-75
2023/10/28 04:28:26;;;;;;;3.00;2.08;;;15.20;71.30;16.90;99256.00;;;;5034018;28;20707;-75
2023/10/28 04:30:59;;;;;;;3.17;1.67;;;15.20;71.20;16.80;99255.00;;;;5016365;28;20560;-74
2023/10/28 04:33:26;;;;;;;5.22;2.03;;;15.20;71.20;16.90;99247.00;;;;5014341;28;20193;-75
2023/10/28 04:35:54;;;;;;;2.70;1.98;;;15.20;71.20;16.90;99248.00;;;;5014765;28;20203;-75
2023/10/28 04:38:21;;;;;;;4.00;1.77;;;15.20;71.10;16.90;99245.00;;;;5014558;28;20197;-75
2023/10/28 04:40:50;;;;;;;3.08;2.10;;;15.20;71.10;16.90;99244.00;;;;5013974;28;20740;-75
2023/10/28 04:43:19;;;;;;;2.45;1.45;;;15.20;71.00;16.90;99244.00;;;;5021880;28;20208;-75
2023/10/28 04:45:46;;;;;;;2.40;2.00;;;15.20;71.00;16.90;99238.00;;;;5034216;28;20193;-75
2023/10/28 04:48:15;;;;;;;3.05;2.00;;;15.20;70.90;16.90;99241.00;;;;5016861;28;20285;-75
2023/10/28 04:50:42;;;;;;;2.47;1.90;;;15.20;71.00;16.90;99242.00;;;;5013724;28;20287;-75
2023/10/28 04:53:09;;;;;;;3.85;1.88;;;15.20;71.00;16.90;99247.00;;;;5014278;28;20194;-75
2023/10/28 04:55:36;;;;;;;4.57;1.77;;;15.20;71.00;16.90;99238.00;;;;5010330;28;22279;-75
2023/10/28 04:58:05;;;;;;;5.70;1.92;;;15.20;71.30;16.90;99245.00;;;;4994884;28;20571;-75
2023/10/28 05:00:32;;;;;;;2.83;1.55;;;15.20;70.90;16.90;99241.00;;;;5004659;28;20221;-75
2023/10/28 05:03:00;;;;;;;2.83;1.23;;;15.20;71.00;16.90;99241.00;;;;5013186;28;20217;-75
2023/10/28 05:05:29;;;;;;;4.53;1.35;;;15.20;71.00;16.90;99240.00;;;;5012869;28;20284;-75
2023/10/28 05:07:56;;;;;;;2.72;1.50;;;15.20;70.90;16.90;99231.00;;;;4997234;28;20680;-75
2023/10/28 05:10:23;;;;;;;2.60;1.02;;;15.20;70.90;17.00;99229.00;;;;5013724;28;20275;-75
2023/10/28 05:12:50;;;;;;;1.95;1.17;;;15.20;70.90;17.00;99235.00;;;;5013205;28;20575;-75
2023/10/28 05:15:17;;;;;;;4.82;1.20;;;15.20;70.90;17.00;99235.00;;;;5013967;28;20662;-75
2023/10/28 05:17:44;;;;;;;3.08;1.20;;;15.20;70.90;17.00;99234.00;;;;5017639;28;20247;-75
2023/10/28 05:20:12;;;;;;;5.50;1.50;;;15.20;70.90;16.90;99237.00;;;;5013796;28;20221;-75
2023/10/28 05:22:42;;;;;;;1.92;1.27;;;15.20;70.80;16.90;99239.00;;;;5012696;28;20204;-75
2023/10/28 05:25:11;;;;;;;4.07;1.23;;;15.20;70.80;16.90;99236.00;;;;5014380;28;20740;-75
2023/10/28 05:27:40;;;;;;;2.58;1.17;;;15.20;70.80;16.90;99243.00;;;;5013798;28;20284;-75
2023/10/28 05:30:10;;;;;;;3.05;1.35;;;15.20;70.80;16.90;99238.00;;;;5013329;28;20221;-76
2023/10/28 05:32:39;;;;;;;2.13;1.40;;;15.20;70.70;16.90;99244.00;;;;5012611;28;20734;-75
2023/10/28 05:35:10;;;;;;;3.00;1.02;;;15.20;70.70;16.90;99242.00;;;;5007655;28;20220;-75
2023/10/28 05:37:43;;;;;;;3.42;1.38;;;15.20;70.70;16.80;99243.00;;;;5011234;28;20201;-75
2023/10/28 05:40:13;;;;;;;1.70;1.02;;;15.20;70.80;16.80;99235.00;;;;5013526;28;20227;-74
2023/10/28 05:42:42;;;;;;;3.63;0.77;;;15.20;70.80;16.90;99241.00;;;;5013147;28;20201;-75
2023/10/28 05:45:10;;;;;;;2.42;1.13;;;15.20;70.80;16.90;99234.00;;;;5012362;28;20220;-75
2023/10/28 05:47:38;;;;;;;4.05;0.95;;;15.20;70.90;16.90;99242.00;;;;5006851;28;20664;-75
2023/10/28 05:50:07;;;;;;;2.17;1.58;;;15.20;70.80;16.90;99241.00;;;;5012957;28;20205;-75
2023/10/28 05:52:38;;;;;;;1.48;0.95;;;15.20;70.90;16.90;99238.00;;;;5030835;28;20291;-75
2023/10/28 05:55:12;;;;;;;1.90;1.10;;;15.20;70.80;16.90;99238.00;;;;5013115;28;20201;-75
2023/10/28 05:57:39;;;;;;;3.45;1.40;;;15.10;70.80;16.90;99239.00;;;;5009797;28;20690;-75
2023/10/28 06:00:11;;;;;;;3.08;1.48;;;15.20;70.90;16.90;99237.00;;;;5008730;28;20635;-75
2023/10/28 06:02:41;;;;;;;6.35;1.25;;;15.20;70.90;16.90;99244.00;;;;5012894;28;20197;-75
2023/10/28 06:05:09;;;;;;;10.30;1.33;;;15.20;70.80;16.90;99247.00;;;;5012474;28;20197;-75
2023/10/28 06:07:37;;;;;;;3.40;0.82;;;15.20;70.80;16.90;99241.00;;;;5013322;28;20203;-75
2023/10/28 06:10:10;;;;;;;2.78;1.10;;;15.10;70.80;16.90;99244.00;;;;5013033;28;20283;-75
2023/10/28 06:12:39;;;;;;;1.90;1.15;;;15.20;70.90;16.90;99240.00;;;;5012824;28;20196;-75
2023/10/28 06:15:08;;;;;;;2.38;1.00;;;15.20;70.90;16.90;99250.00;;;;5010883;28;20201;-75
2023/10/28 06:17:36;;;;;;;2.67;1.63;;;15.20;70.90;16.90;99248.00;;;;5011179;28;20588;-75
2023/10/28 06:20:06;;;;;;;2.95;1.20;;;15.20;70.80;16.90;99240.00;;;;5012855;28;20230;-75
2023/10/28 06:22:35;;;;;;;1.45;1.15;;;15.20;70.80;16.90;99246.00;;;;5012931;28;20192;-74
2023/10/28 06:25:04;;;;;;;3.15;1.42;;;15.20;70.80;16.90;99248.00;;;;5016642;28;20200;-75
2023/10/28 06:27:35;;;;;;;2.15;1.40;;;15.20;70.70;16.80;99251.00;;;;5015219;28;20201;-75
2023/10/28 06:30:06;;;;;;;3.10;1.60;;;15.20;70.70;16.90;99246.00;;;;5009488;28;20371;-75
2023/10/28 06:32:39;;;;;;;2.17;0.95;;;15.20;70.70;16.90;99256.00;;;;5011469;28;20224;-75
2023/10/28 06:35:08;;;;;;;2.50;1.20;;;15.20;70.70;16.90;99254.00;;;;5011454;28;20207;-75
2023/10/28 06:37:39;;;;;;;3.60;1.23;;;15.20;70.70;16.90;99251.00;;;;5012148;28;20203;-75
2023/10/28 06:40:10;;;;;;;2.63;1.13;;;15.20;70.80;16.80;99255.00;;;;5012451;28;20241;-75
2023/10/28 06:42:39;;;;;;;1.75;1.15;;;15.20;70.70;16.80;99248.00;;;;5022576;28;20196;-74
2023/10/28 06:45:10;;;;;;;2.47;1.40;;;15.20;70.80;16.90;99257.00;;;;5012798;28;20210;-75
2023/10/28 06:47:37;;;;;;;1.92;1.35;;;15.20;70.80;16.90;99257.00;;;;5000734;28;20225;-75
2023/10/28 06:50:06;;;;;;;2.78;1.50;;;15.20;71.40;16.90;99258.00;;;;5012257;28;20197;-75
2023/10/28 06:52:40;;;;;;;3.28;1.55;;;15.20;70.80;16.90;99262.00;;;;5012209;28;20204;-74
2023/10/28 06:55:12;;;;;;;1.85;1.42;;;15.20;70.90;16.90;99259.00;;;;5008987;28;20685;-75
2023/10/28 06:57:41;;;;;;;2.75;1.23;;;15.20;70.90;16.90;99258.00;;;;5012166;28;20193;-75
2023/10/28 07:00:13;;;;;;;2.42;1.20;;;15.20;70.90;16.90;99255.00;;;;5017294;28;20228;-75
2023/10/28 07:02:40;;;;;;;3.97;1.58;;;15.20;70.90;16.90;99263.00;;;;5011129;28;20601;-75
2023/10/28 07:05:11;;;;;;;3.60;1.60;;;15.20;70.80;16.90;99257.00;;;;5010388;28;20284;-75
2023/10/28 07:07:39;;;;;;;1.63;1.15;;;15.20;70.90;16.90;99264.00;;;;5011059;28;20201;-74
2023/10/28 07:10:08;;;;;;;3.50;1.38;;;15.20;70.90;16.90;99267.00;;;;5011850;28;20280;-75
2023/10/28 07:12:39;;;;;;;2.28;1.27;;;15.20;70.90;16.90;99259.00;;;;5012057;28;20204;-75
2023/10/28 07:15:10;;;;;;;3.55;1.33;;;15.20;70.90;16.90;99254.00;;;;5011829;28;20288;-75
2023/10/28 07:17:39;;;;;;;1.90;1.00;;;15.20;70.90;16.90;99266.00;;;;5030977;28;20468;-76
2023/10/28 07:20:08;;;;;;;1.80;1.15;;;15.20;70.90;16.90;99265.00;;;;5026066;28;20704;-73
2023/10/28 07:22:37;;;;;;;1.83;1.20;;;15.20;70.90;16.90;99266.00;;;;5012238;28;20198;-75
2023/10/28 07:25:06;;;;;;;4.32;0.90;;;15.20;70.90;17.00;99268.00;;;;5012604;28;20201;-75
2023/10/28 07:27:33;;;;;;;2.28;1.20;;;15.20;71.00;17.00;99264.00;;;;5011574;28;20205;-75
2023/10/28 07:30:00;;;;;;;4.07;1.15;;;15.30;71.10;17.00;99263.00;;;;5011768;28;20227;-75
2023/10/28 07:32:28;;;;;;;3.38;1.05;;;15.30;71.00;17.00;99268.00;;;;5011672;28;20688;-75
2023/10/28 07:34:55;;;;;;;2.25;1.23;;;15.30;71.10;17.00;99276.00;;;;5011589;28;20207;-75
2023/10/28 07:37:24;;;;;;;1.33;1.02;;;15.30;71.10;17.00;99270.00;;;;5012158;28;20193;-75
2023/10/28 07:39:53;;;;;;;1.38;0.98;;;15.40;71.30;17.10;99273.00;;;;5011535;28;20244;-74
2023/10/28 07:42:23;;;;;;;1.45;0.80;;;15.30;71.20;17.10;99272.00;;;;5010679;28;20220;-76
2023/10/28 07:44:51;;;;;;;1.65;0.90;;;15.40;71.20;17.10;99272.00;;;;5009554;28;20229;-75
2023/10/28 07:47:18;;;;;;;3.28;0.90;;;15.40;71.30;17.20;99274.00;;;;5013504;28;20189;-75
2023/10/28 07:49:48;;;;;;;2.95;1.15;;;15.40;71.20;17.20;99285.00;;;;5013094;28;20663;-75
2023/10/28 07:52:15;;;;;;;2.38;1.25;;;15.50;71.30;17.20;99283.00;;;;4999379;28;20201;-76
2023/10/28 07:54:42;;;;;;;3.15;1.20;;;15.50;71.30;17.20;99287.00;;;;5007576;28;20543;-76
2023/10/28 07:57:10;;;;;;;1.98;0.82;;;15.50;71.30;17.30;99289.00;;;;5012466;28;20227;-75
2023/10/28 07:59:37;;;;;;;3.25;1.00;;;15.60;71.30;17.30;99289.00;;;;5014567;28;20716;-74
2023/10/28 08:02:07;;;;;;;1.85;0.90;;;15.60;71.30;17.30;99294.00;;;;5013435;28;20244;-73
2023/10/28 08:04:34;;;;;;;5.22;1.15;;;15.60;71.20;17.30;99291.00;;;;5012292;28;20229;-75
2023/10/28 08:07:05;;;;;;;4.82;1.52;;;15.60;71.10;17.30;99298.00;;;;5017943;28;20197;-74
2023/10/28 08:09:32;;;;;;;2.40;1.00;;;15.60;71.10;17.30;99293.00;;;;5012132;28;20203;-75
2023/10/28 08:11:59;;;;;;;2.33;1.02;;;15.70;71.80;17.30;99297.00;;;;5008934;28;20201;-75
2023/10/28 08:14:28;;;;;;;4.32;0.88;;;15.60;70.90;17.30;99299.00;;;;5014919;28;20197;-75
2023/10/28 08:16:56;;;;;;;1.75;0.80;;;15.70;71.00;17.30;99307.00;;;;5012320;28;20251;-75
2023/10/28 08:19:24;;;;;;;3.08;0.95;;;15.70;70.90;17.30;99314.00;;;;5011591;28;20239;-74
2023/10/28 08:21:51;;;;;;;3.50;0.90;;;15.70;70.90;17.40;99312.00;;;;5014972;28;20193;-75
2023/10/28 08:24:22;;;;;;;3.90;1.17;;;15.70;70.90;17.30;99312.00;;;;5015424;28;20681;-74
2023/10/28 08:26:49;;;;;;;2.40;1.00;;;15.70;70.90;17.40;99309.00;;;;5012782;28;20292;-75
2023/10/28 08:29:16;;;;;;;3.45;0.77;;;15.70;71.00;17.40;99309.00;;;;5014824;28;20225;-75
2023/10/28 08:31:43;;;;;;;2.13;0.80;;;15.70;71.00;17.40;99314.00;;;;5013677;28;20197;-75
2023/10/28 08:34:10;;;;;;;3.95;0.93;;;15.70;71.00;17.40;99310.00;;;;5014300;28;20296;-75
2023/10/28 08:36:38;;;;;;;1.60;0.70;;;15.70;71.00;17.40;99325.00;;;;5013219;28;20570;-75
2023/10/28 08:39:07;;;;;;;4.28;0.95;;;15.70;71.00;17.40;99320.00;;;;5012961;28;20233;-75
2023/10/28 08:41:36;;;;;;;2.70;0.88;;;15.70;71.00;17.40;99326.00;;;;5014890;28;20232;-73
2023/10/28 08:44:06;;;;;;;3.63;1.10;;;15.70;71.00;17.40;99314.00;;;;5012582;28;21044;-74
2023/10/28 08:46:33;;;;;;;2.90;1.30;;;15.80;71.10;17.40;99318.00;;;;5013161;28;20562;-74
2023/10/28 08:49:03;;;;;;;5.78;1.63;;;15.80;71.10;17.40;99315.00;;;;5012799;28;20204;-74
2023/10/28 08:51:31;;;;;;;3.38;1.20;;;15.80;71.10;17.50;99324.00;;;;5012116;28;20197;-74
2023/10/28 08:54:02;;;;;;;2.63;1.08;;;15.80;71.20;17.50;99320.00;;;;5012059;28;20236;-75
2023/10/28 08:56:34;;;;;;;3.80;1.02;;;15.80;71.20;17.50;99322.00;;;;5012380;28;20221;-76
2023/10/28 08:59:02;;;;;;;1.58;0.93;;;15.90;71.30;17.50;99318.00;;;;5014262;28;20197;-75
2023/10/28 09:01:31;;;;;;;3.92;0.93;;;15.90;71.30;17.60;99317.00;;;;5014203;28;20243;-74
2023/10/28 09:04:04;;;;;;;1.80;1.00;;;15.90;71.20;17.50;99325.00;;;;5013708;28;20212;-74
2023/10/28 09:06:31;;;;;;;2.78;1.02;;;15.90;71.20;17.60;99329.00;;;;5011863;28;20227;-74
2023/10/28 09:09:00;;;;;;;1.58;1.02;;;16.00;71.20;17.60;99332.00;;;;5007588;28;20204;-74
2023/10/28 09:11:28;;;;;;;6.40;1.20;;;16.00;71.10;17.60;99326.00;;;;4994163;28;20202;-73
2023/10/28 09:13:56;;;;;;;4.13;0.90;;;16.00;71.10;17.60;99322.00;;;;5003210;28;20205;-74
2023/10/28 09:16:24;;;;;;;2.95;1.30;;;16.00;71.10;17.60;99329.00;;;;5011932;28;20651;-73
2023/10/28 09:18:51;;;;;;;3.38;1.02;;;16.00;71.10;17.70;99324.00;;;;5012925;28;20295;-74
2023/10/28 09:21:18;;;;;;;3.85;0.77;;;16.10;71.20;17.70;99329.00;;;;5013726;28;20235;-74
2023/10/28 09:23:45;;;;;;;4.55;0.77;;;16.10;71.20;17.80;99340.00;;;;5013730;28;20275;-74
2023/10/28 09:26:12;;;;;;;5.90;1.17;;;16.10;71.30;17.80;99332.00;;;;5013654;28;20204;-74
2023/10/28 09:28:44;;;;;;;5.20;1.13;;;16.10;71.40;17.80;99336.00;;;;5011228;28;20217;-73
2023/10/28 09:31:12;;;;;;;2.97;0.90;;;16.20;71.30;17.90;99337.00;;;;5013749;28;20212;-74
2023/10/28 09:33:41;;;;;;;1.92;0.95;;;16.20;71.30;17.90;99337.00;;;;5014031;28;20208;-74
2023/10/28 09:36:09;;;;;;;3.72;1.40;;;16.30;71.30;18.00;99335.00;;;;5013726;28;20201;-74
2023/10/28 09:38:41;;;;;;;3.00;0.90;;;16.30;71.40;18.00;99342.00;;;;5012920;28;20197;-73
2023/10/28 09:41:10;;;;;;;1.10;0.75;;;16.30;71.30;18.00;99327.00;;;;5013556;28;20264;-73
2023/10/28 09:43:38;;;;;;;2.80;0.85;;;16.40;71.20;18.10;99336.00;;;;5012436;28;20205;-73
2023/10/28 09:46:07;;;;;;;3.72;1.17;;;16.40;71.10;18.10;99337.00;;;;5013270;28;20193;-74
2023/10/28 09:48:38;;;;;;;4.38;0.73;;;16.40;71.00;18.10;99337.00;;;;5014853;28;20205;-73
2023/10/28 09:51:08;;;;;;;3.40;0.93;;;16.50;71.20;18.20;99344.00;;;;5023069;28;20219;-72
2023/10/28 09:53:36;;;;;;;2.70;0.80;;;16.50;71.20;18.20;99338.00;;;;5013459;28;20219;-73
2023/10/28 09:56:05;;;;;;;2.80;0.70;;;16.50;71.20;18.30;99343.00;;;;5010893;28;20229;-72
2023/10/28 09:58:41;;;;;;;3.90;1.10;;;16.60;71.20;18.30;99343.00;;;;5013062;28;20312;-72
2023/10/28 10:01:20;;;;;;;3.20;0.73;;;16.60;71.10;18.30;99356.00;;;;5012380;28;20216;-73
2023/10/28 10:04:06;;;;;;;2.65;1.08;;;16.70;71.00;18.30;99352.00;;;;5010277;28;20205;-73
2023/10/28 10:06:36;;;;;;;2.47;0.70;;;16.70;70.90;18.40;99354.00;;;;5021116;28;20692;-73
2023/10/28 10:09:04;;;;;;;2.28;0.80;;;16.80;70.90;18.50;99352.00;;;;5012687;28;20255;-73
2023/10/28 10:11:32;;;;;;;4.38;1.17;;;16.80;70.90;18.50;99358.00;;;;5013055;28;20189;-73
2023/10/28 10:14:11;;;;;;;3.40;1.17;;;16.80;70.90;18.40;99348.00;;;;5012643;28;20205;-73
2023/10/28 10:16:48;;;;;;;3.67;0.80;;;16.90;70.60;18.50;99354.00;;;;5012029;28;20207;-73
2023/10/28 10:19:24;;;;;;;2.35;0.68;;;16.90;70.60;18.50;99352.00;;;;5012667;28;20199;-73
2023/10/28 10:21:53;;;;;;;2.05;0.85;;;16.90;70.60;18.60;99364.00;;;;5012706;28;20243;-73
2023/10/28 10:24:22;;;;;;;2.70;1.00;;;17.00;70.70;18.70;99352.00;;;;5013534;28;20204;-73
2023/10/28 10:26:56;;;;;;;3.42;1.05;;;17.00;70.70;18.70;99352.00;;;;4995183;28;20221;-73
2023/10/28 10:29:26;;;;;;;4.53;0.90;;;17.10;70.70;18.80;99350.00;;;;5012777;28;20623;-74
2023/10/28 10:31:56;;;;;;;2.85;0.75;;;17.10;70.70;18.90;99365.00;;;;5012589;28;20684;-73
2023/10/28 10:34:34;;;;;;;2.03;1.00;;;17.20;70.70;18.90;99357.00;;;;5011566;28;20197;-73
2023/10/28 10:37:03;;;;;;;1.70;0.77;;;17.30;70.50;19.00;99364.00;;;;4993258;28;20205;-73
2023/10/28 10:39:43;;;;;;;1.42;0.85;;;17.30;70.50;18.90;99365.00;;;;4995169;28;20197;-73
2023/10/28 10:42:12;;;;;;;2.22;1.17;;;17.40;70.20;19.00;99364.00;;;;5012728;28;20697;-73
2023/10/28 10:44:40;;;;;;;1.13;0.80;;;17.40;70.10;19.00;99362.00;;;;5011977;28;20585;-73
2023/10/28 10:47:09;;;;;;;4.32;1.02;;;17.40;69.90;19.00;99358.00;;;;5012566;28;20613;-73
2023/10/28 10:49:39;;;;;;;2.40;0.80;;;17.40;69.60;19.00;99358.00;;;;5012651;28;20193;-73
2023/10/28 10:52:08;;;;;;;2.22;0.80;;;17.40;69.60;19.10;99359.00;;;;5012031;28;20228;-74
2023/10/28 10:54:39;;;;;;;2.17;0.90;;;17.50;69.50;19.10;99359.00;;;;5011201;28;20208;-74
2023/10/28 10:57:07;;;;;;;2.30;0.70;;;17.50;69.60;19.10;99354.00;;;;5003466;28;20236;-74
2023/10/28 10:59:38;;;;;;;3.05;0.90;;;17.50;69.60;19.20;99349.00;;;;5011347;28;20201;-74
2023/10/28 11:02:06;;;;;;;3.85;1.05;;;17.50;69.50;19.20;99350.00;;;;5012183;28;20717;-73